Time;durP1;ratioP1;P1;durP2;ratioP2;P2;SDS_P1;SDS_P2;PMS_P1;PMS_P2;Temp;Humidity;BMP_temperature;BMP_pressure;BME280_temperature;BME280_humidity;BME280_pressure;Samples;Min_cycle;Max_cycle;Signal;HPM_P1;HPM_P2
2022/01/16 00:07:36;;;;;;;63.28;25.30;;;;;;;;;;10209961;29;20231;-66
2022/01/16 00:12:40;;;;;;;66.78;26.48;;;;;;;;;;10184440;29;20080;-67
2022/01/16 00:17:52;;;;;;;62.53;26.25;;;;;;;;;;10158300;29;20059;-66
2022/01/16 00:22:55;;;;;;;57.88;25.23;;;;;;;;;;10181145;29;20366;-66
2022/01/16 00:27:59;;;;;;;61.13;25.35;;;;;;;;;;10195786;29;20071;-67
2022/01/16 00:33:01;;;;;;;54.55;24.75;;;;;;;;;;10196110;29;20091;-66
2022/01/16 00:38:04;;;;;;;57.15;23.73;;;;;;;;;;10195032;29;20306;-66
2022/01/16 00:43:07;;;;;;;53.13;22.10;;;;;;;;;;10194691;29;20095;-67
2022/01/16 00:48:10;;;;;;;56.72;22.58;;;;;;;;;;10195752;29;20056;-66
2022/01/16 00:53:12;;;;;;;56.33;22.75;;;;;;;;;;10194919;29;20355;-67
2022/01/16 00:58:15;;;;;;;58.38;22.17;;;;;;;;;;10194864;29;20044;-67
2022/01/16 01:03:18;;;;;;;60.42;22.40;;;;;;;;;;10193669;29;20102;-66
2022/01/16 01:08:20;;;;;;;62.05;23.45;;;;;;;;;;10194436;29;20292;-66
2022/01/16 01:13:31;;;;;;;56.65;22.85;;;;;;;;;;10192148;29;20088;-67
2022/01/16 01:18:35;;;;;;;63.53;21.27;;;;;;;;;;10205875;29;20159;-67
2022/01/16 01:23:37;;;;;;;51.63;21.83;;;;;;;;;;10193601;29;20044;-67
2022/01/16 01:28:41;;;;;;;49.90;20.45;;;;;;;;;;10194302;29;20095;-67
2022/01/16 01:33:44;;;;;;;59.05;22.02;;;;;;;;;;10170907;29;20128;-67
2022/01/16 01:38:46;;;;;;;54.47;20.45;;;;;;;;;;10189164;29;20103;-67
2022/01/16 01:54:29;;;;;;;54.45;19.20;;;;;;;;;;10205265;29;20048;-67
2022/01/16 01:59:33;;;;;;;57.50;20.45;;;;;;;;;;10191233;29;20096;-67
2022/01/16 02:04:35;;;;;;;54.22;18.90;;;;;;;;;;10191431;29;20067;-67
2022/01/16 02:09:38;;;;;;;53.45;19.85;;;;;;;;;;10191534;29;20119;-67
2022/01/16 02:14:55;;;;;;;42.95;16.73;;;;;;;;;;10191497;29;20112;-67
2022/01/16 02:36:14;;;;;;;53.33;16.70;;;;;;;;;;10156363;29;20068;-67
2022/01/16 02:41:18;;;;;;;40.70;16.10;;;;;;;;;;10183031;29;20323;-68
2022/01/16 02:46:39;;;;;;;44.88;16.13;;;;;;;;;;10191230;29;20044;-67
2022/01/16 02:51:41;;;;;;;58.13;19.27;;;;;;;;;;10203901;29;20056;-67
2022/01/16 02:56:45;;;;;;;53.08;19.08;;;;;;;;;;10191154;29;20092;-67
2022/01/16 03:01:47;;;;;;;52.13;19.55;;;;;;;;;;10168705;29;20362;-67
2022/01/16 03:06:49;;;;;;;55.90;20.02;;;;;;;;;;10171769;29;20083;-67
2022/01/16 03:11:54;;;;;;;61.22;25.23;;;;;;;;;;10190373;29;20076;-66
2022/01/16 03:16:56;;;;;;;70.03;24.35;;;;;;;;;;10189966;29;20127;-67
2022/01/16 03:22:02;;;;;;;65.43;24.30;;;;;;;;;;10200593;29;20044;-67
2022/01/16 03:27:08;;;;;;;66.88;25.75;;;;;;;;;;10207243;29;20358;-67
2022/01/16 03:32:13;;;;;;;56.58;25.02;;;;;;;;;;10164500;29;20282;-67
2022/01/16 03:37:15;;;;;;;55.25;22.92;;;;;;;;;;10192805;29;20084;-67
2022/01/16 03:42:25;;;;;;;67.65;25.63;;;;;;;;;;10196777;29;20059;-66
2022/01/16 03:47:27;;;;;;;67.47;25.42;;;;;;;;;;10209799;29;20052;-66
2022/01/16 03:52:30;;;;;;;62.63;25.08;;;;;;;;;;10195506;29;20055;-67
2022/01/16 03:57:33;;;;;;;58.08;22.70;;;;;;;;;;10197092;29;20227;-66
2022/01/16 04:02:36;;;;;;;60.33;23.45;;;;;;;;;;10196756;29;20067;-66
2022/01/16 04:07:38;;;;;;;58.00;23.00;;;;;;;;;;10195241;29;20283;-67
2022/01/16 04:12:44;;;;;;;62.85;22.25;;;;;;;;;;10189816;29;20076;-66
2022/01/16 04:17:46;;;;;;;61.90;22.80;;;;;;;;;;10209173;29;20058;-66
2022/01/16 04:22:49;;;;;;;58.08;23.75;;;;;;;;;;10197882;29;20044;-67
2022/01/16 04:27:53;;;;;;;58.75;23.23;;;;;;;;;;10196731;29;20048;-67
2022/01/16 04:32:55;;;;;;;60.30;23.60;;;;;;;;;;10195842;29;20080;-67
2022/01/16 04:37:58;;;;;;;65.85;22.27;;;;;;;;;;10195045;29;20044;-66
2022/01/16 04:48:21;;;;;;;57.78;22.20;;;;;;;;;;10198411;29;20044;-67
2022/01/16 04:53:24;;;;;;;66.65;23.80;;;;;;;;;;10173499;29;20056;-67
2022/01/16 04:58:28;;;;;;;64.70;23.48;;;;;;;;;;10155641;29;20075;-67
2022/01/16 05:03:31;;;;;;;60.90;23.67;;;;;;;;;;10188068;29;20362;-66
2022/01/16 05:08:33;;;;;;;61.40;23.85;;;;;;;;;;10190619;29;20111;-66
2022/01/16 05:19:00;;;;;;;63.60;23.45;;;;;;;;;;10149423;29;20064;-67
2022/01/16 05:24:07;;;;;;;62.20;22.75;;;;;;;;;;10149709;29;20114;-67
2022/01/16 05:29:12;;;;;;;49.90;18.17;;;;;;;;;;10155152;29;20076;-66
2022/01/16 05:34:18;;;;;;;48.23;18.87;;;;;;;;;;10149693;29;20108;-66
2022/01/16 05:39:20;;;;;;;52.90;18.63;;;;;;;;;;10148853;29;20362;-66
2022/01/16 05:44:23;;;;;;;49.17;19.23;;;;;;;;;;10148940;29;20086;-66
2022/01/16 05:49:26;;;;;;;52.35;19.67;;;;;;;;;;10146743;29;20315;-67
2022/01/16 05:54:28;;;;;;;53.42;21.55;;;;;;;;;;10131255;29;20060;-67
2022/01/16 05:59:32;;;;;;;53.83;20.10;;;;;;;;;;10153921;29;20068;-66
2022/01/16 06:04:34;;;;;;;51.28;18.42;;;;;;;;;;10192447;29;20074;-67
2022/01/16 06:09:36;;;;;;;42.30;17.30;;;;;;;;;;10191352;29;20099;-65
2022/01/16 06:14:40;;;;;;;39.35;17.55;;;;;;;;;;10192878;29;20106;-67
2022/01/16 06:19:42;;;;;;;44.97;15.93;;;;;;;;;;10189745;29;20085;-68
2022/01/16 06:24:44;;;;;;;36.80;13.02;;;;;;;;;;10191180;29;20170;-67
2022/01/16 06:29:48;;;;;;;35.33;12.73;;;;;;;;;;10191964;29;20084;-67
2022/01/16 06:34:51;;;;;;;38.50;12.25;;;;;;;;;;10191373;29;20123;-67
2022/01/16 06:39:53;;;;;;;47.38;13.27;;;;;;;;;;10191002;29;20052;-67
2022/01/16 06:44:57;;;;;;;34.05;12.82;;;;;;;;;;10190771;29;20084;-66
2022/01/16 06:49:59;;;;;;;38.55;13.05;;;;;;;;;;10193000;29;20343;-67
2022/01/16 06:55:01;;;;;;;52.25;14.55;;;;;;;;;;10191384;29;20099;-66
2022/01/16 07:00:06;;;;;;;40.72;13.15;;;;;;;;;;10192339;29;20115;-67
2022/01/16 07:05:10;;;;;;;35.67;12.93;;;;;;;;;;10200423;29;20056;-67
2022/01/16 07:10:16;;;;;;;36.88;13.27;;;;;;;;;;10198502;29;20078;-66
2022/01/16 07:15:20;;;;;;;34.38;12.15;;;;;;;;;;10189946;29;20071;-70
2022/01/16 07:20:22;;;;;;;37.13;13.52;;;;;;;;;;10159861;29;20083;-67
2022/01/16 07:25:24;;;;;;;40.85;18.38;;;;;;;;;;10169916;29;20060;-67
2022/01/16 07:30:28;;;;;;;46.05;19.23;;;;;;;;;;10198711;29;20044;-66
2022/01/16 07:35:30;;;;;;;56.20;20.83;;;;;;;;;;10177827;29;20069;-67
2022/01/16 07:40:33;;;;;;;43.45;16.20;;;;;;;;;;10196713;29;20106;-65
2022/01/16 07:45:38;;;;;;;36.00;13.63;;;;;;;;;;10233793;29;20075;-68
2022/01/16 07:50:41;;;;;;;36.47;12.37;;;;;;;;;;10197681;29;20453;-66
2022/01/16 07:55:43;;;;;;;41.45;10.60;;;;;;;;;;10197908;29;20294;-66
2022/01/16 08:00:47;;;;;;;40.63;12.35;;;;;;;;;;10197311;29;20336;-66
2022/01/16 08:05:49;;;;;;;29.95;9.73;;;;;;;;;;10196447;29;20060;-67
2022/01/16 08:10:54;;;;;;;31.95;10.40;;;;;;;;;;10196238;29;20059;-66
2022/01/16 08:15:57;;;;;;;34.53;10.33;;;;;;;;;;10196843;29;20109;-66
2022/01/16 08:21:00;;;;;;;25.75;9.10;;;;;;;;;;10197007;29;20048;-67
2022/01/16 08:26:04;;;;;;;29.17;9.48;;;;;;;;;;10197415;29;20071;-67
2022/01/16 08:31:07;;;;;;;29.90;10.50;;;;;;;;;;10197199;29;20063;-67
2022/01/16 08:36:10;;;;;;;29.77;10.82;;;;;;;;;;10195592;29;20066;-66
2022/01/16 08:41:12;;;;;;;49.70;12.75;;;;;;;;;;10196543;29;20395;-67
2022/01/16 08:46:16;;;;;;;37.13;11.93;;;;;;;;;;10196528;29;20044;-67
2022/01/16 08:51:19;;;;;;;45.60;12.90;;;;;;;;;;10196212;29;20108;-67
2022/01/16 08:56:21;;;;;;;47.75;15.98;;;;;;;;;;10188108;29;20052;-66
2022/01/16 09:01:25;;;;;;;53.53;15.60;;;;;;;;;;10164011;29;20075;-66
2022/01/16 09:06:27;;;;;;;49.92;16.73;;;;;;;;;;10164873;29;20096;-66
2022/01/16 09:11:30;;;;;;;55.60;17.90;;;;;;;;;;10194912;29;20071;-67
2022/01/16 09:16:33;;;;;;;50.70;15.88;;;;;;;;;;10193583;29;20358;-67
2022/01/16 09:21:36;;;;;;;32.17;12.30;;;;;;;;;;10194652;29;20112;-65
2022/01/16 09:26:39;;;;;;;36.97;12.65;;;;;;;;;;10194865;29;20044;-67
2022/01/16 09:31:42;;;;;;;40.03;12.20;;;;;;;;;;10194384;29;20088;-66
2022/01/16 09:36:45;;;;;;;38.17;12.40;;;;;;;;;;10194342;29;20095;-68
2022/01/16 09:41:47;;;;;;;31.10;11.52;;;;;;;;;;10194344;29;20291;-67
2022/01/16 09:46:51;;;;;;;28.75;11.48;;;;;;;;;;10193636;29;20071;-68
2022/01/16 09:51:53;;;;;;;30.67;12.60;;;;;;;;;;10193887;29;20071;-67
2022/01/16 09:56:56;;;;;;;37.17;13.65;;;;;;;;;;10193204;29;20044;-66
2022/01/16 10:01:59;;;;;;;41.42;16.17;;;;;;;;;;10195918;29;20051;-67
2022/01/16 10:07:06;;;;;;;36.38;17.10;;;;;;;;;;10223438;29;20048;-67
2022/01/16 10:12:16;;;;;;;36.90;14.88;;;;;;;;;;10192429;29;20086;-68
2022/01/16 10:17:21;;;;;;;36.63;15.13;;;;;;;;;;10193713;29;20051;-67
2022/01/16 10:22:23;;;;;;;33.72;15.30;;;;;;;;;;10192203;29;20063;-67
2022/01/16 10:27:25;;;;;;;38.88;15.25;;;;;;;;;;10193075;29;20067;-67
2022/01/16 10:32:31;;;;;;;34.92;15.20;;;;;;;;;;10192983;29;20079;-67
2022/01/16 10:37:34;;;;;;;37.90;15.63;;;;;;;;;;10205077;29;20040;-67
2022/01/16 10:42:40;;;;;;;38.05;16.80;;;;;;;;;;10191696;29;20052;-67
2022/01/16 10:47:47;;;;;;;49.03;20.05;;;;;;;;;;10192361;29;20079;-66
2022/01/16 10:52:58;;;;;;;60.28;21.55;;;;;;;;;;10191747;29;20103;-66
2022/01/16 10:58:04;;;;;;;46.53;20.60;;;;;;;;;;10204605;29;20226;-67
2022/01/16 11:03:09;;;;;;;55.72;21.60;;;;;;;;;;10205523;29;20052;-68
2022/01/16 11:08:14;;;;;;;48.38;21.25;;;;;;;;;;10175204;29;20075;-67
2022/01/16 11:13:18;;;;;;;56.90;22.83;;;;;;;;;;10191406;29;20083;-67
2022/01/16 11:18:23;;;;;;;51.75;21.92;;;;;;;;;;10192143;29;20306;-67
2022/01/16 11:23:32;;;;;;;55.00;22.02;;;;;;;;;;10189563;29;20332;-67
2022/01/16 11:28:35;;;;;;;51.92;20.90;;;;;;;;;;10188425;29;20561;-67
2022/01/16 11:33:41;;;;;;;55.05;20.23;;;;;;;;;;10151567;29;20237;-65
2022/01/16 11:38:45;;;;;;;;;;;;;;;;;;10178435;29;20079;-67
2022/01/16 11:43:48;;;;;;;50.38;20.55;;;;;;;;;;10191234;29;19972;-67
2022/01/16 11:49:02;;;;;;;50.45;19.83;;;;;;;;;;10193091;29;20059;-67
2022/01/16 11:54:08;;;;;;;51.67;21.23;;;;;;;;;;10197256;29;20056;-69
2022/01/16 11:59:19;;;;;;;53.15;20.90;;;;;;;;;;10197796;29;20056;-69
2022/01/16 12:04:55;;;;;;;55.72;22.88;;;;;;;;;;10209863;29;20096;-70
2022/01/16 12:09:58;;;;;;;;;;;;;;;;;;10197149;29;20044;-71
2022/01/16 12:15:02;;;;;;;57.38;21.13;;;;;;;;;;10199138;29;20223;-71
2022/01/16 12:20:26;;;;;;;55.47;20.90;;;;;;;;;;10194408;29;20044;-70
2022/01/16 12:25:31;;;;;;;48.53;21.80;;;;;;;;;;10195653;29;20040;-66
2022/01/16 12:30:39;;;;;;;55.30;21.85;;;;;;;;;;10194685;29;20047;-67
2022/01/16 12:36:16;;;;;;;57.17;21.67;;;;;;;;;;10191839;29;20381;-68
2022/01/16 12:41:25;;;;;;;61.15;22.70;;;;;;;;;;10192840;29;20063;-68
2022/01/16 12:46:31;;;;;;;59.53;24.75;;;;;;;;;;10208467;29;20114;-67
2022/01/16 12:51:36;;;;;;;58.22;23.92;;;;;;;;;;10209012;29;20048;-67
2022/01/16 12:56:43;;;;;;;65.07;25.95;;;;;;;;;;10230171;29;20759;-65
2022/01/16 13:01:47;;;;;;;64.45;27.80;;;;;;;;;;10217197;28;20351;-67
2022/01/16 13:06:51;;;;;;;65.10;28.17;;;;;;;;;;10211757;29;20048;-68
2022/01/16 13:11:55;;;;;;;67.82;31.08;;;;;;;;;;10194451;29;20048;-66
2022/01/16 13:17:00;;;;;;;78.70;34.10;;;;;;;;;;10194752;29;20044;-67
2022/01/16 13:22:11;;;;;;;80.35;34.10;;;;;;;;;;10194650;29;20080;-67
2022/01/16 13:27:16;;;;;;;85.00;35.80;;;;;;;;;;10194019;29;20056;-67
2022/01/16 13:32:19;;;;;;;;;;;;;;;;;;10214880;29;20067;-68
2022/01/16 13:37:27;;;;;;;84.75;36.20;;;;;;;;;;10233773;29;19970;-67
2022/01/16 13:42:50;;;;;;;87.47;36.75;;;;;;;;;;10233215;29;20055;-67
2022/01/16 13:48:05;;;;;;;93.07;37.95;;;;;;;;;;10205698;29;20247;-68
2022/01/16 13:53:12;;;;;;;90.07;38.13;;;;;;;;;;10206835;29;20056;-66
2022/01/16 13:58:15;;;;;;;88.50;36.50;;;;;;;;;;10192584;29;20108;-66
2022/01/16 14:03:20;;;;;;;100.88;40.67;;;;;;;;;;10192722;29;20060;-68
2022/01/16 14:08:27;;;;;;;87.60;38.10;;;;;;;;;;10204417;29;20048;-66
2022/01/16 14:13:32;;;;;;;97.07;39.67;;;;;;;;;;10207505;29;20048;-66
2022/01/16 14:23:56;;;;;;;99.70;40.90;;;;;;;;;;10208685;29;20426;-68
2022/01/16 14:28:58;;;;;;;103.80;42.30;;;;;;;;;;10192791;29;20064;-67
2022/01/16 14:34:00;;;;;;;101.53;42.03;;;;;;;;;;10191364;29;20067;-68
2022/01/16 14:39:04;;;;;;;108.03;44.70;;;;;;;;;;10192606;29;20044;-67
2022/01/16 14:44:07;;;;;;;102.90;44.05;;;;;;;;;;10185661;29;20075;-67
2022/01/16 14:49:09;;;;;;;123.70;48.72;;;;;;;;;;10191573;29;20055;-67
2022/01/16 14:54:14;;;;;;;121.38;46.22;;;;;;;;;;10192065;29;20469;-67
2022/01/16 14:59:16;;;;;;;100.35;41.83;;;;;;;;;;10191037;29;20092;-66
2022/01/16 15:04:18;;;;;;;96.53;42.15;;;;;;;;;;10191450;29;20059;-67
2022/01/16 15:09:22;;;;;;;94.30;39.20;;;;;;;;;;10191986;29;20051;-67
2022/01/16 15:14:25;;;;;;;83.32;36.13;;;;;;;;;;10191685;29;20302;-67
2022/01/16 15:19:32;;;;;;;75.05;33.90;;;;;;;;;;10191717;29;20074;-67
2022/01/16 15:24:36;;;;;;;83.15;34.22;;;;;;;;;;10209614;29;20055;-67
2022/01/16 15:29:38;;;;;;;74.90;32.67;;;;;;;;;;10198307;29;20079;-67
2022/01/16 15:34:40;;;;;;;72.93;32.53;;;;;;;;;;10198511;29;20063;-68
2022/01/16 15:39:44;;;;;;;79.78;33.67;;;;;;;;;;10164411;29;20060;-67
2022/01/16 15:44:47;;;;;;;77.70;32.47;;;;;;;;;;10185844;29;20051;-68
2022/01/16 15:49:50;;;;;;;75.43;32.17;;;;;;;;;;10238347;29;20051;-67
2022/01/16 15:54:54;;;;;;;66.20;30.13;;;;;;;;;;10208193;29;20055;-69
2022/01/16 15:59:57;;;;;;;70.70;31.77;;;;;;;;;;10198457;29;20193;-68
2022/01/16 16:04:59;;;;;;;76.75;34.00;;;;;;;;;;10198406;29;20343;-67
2022/01/16 16:10:03;;;;;;;65.63;31.30;;;;;;;;;;10197971;29;20052;-67
2022/01/16 16:15:07;;;;;;;85.38;35.50;;;;;;;;;;10198927;29;20051;-68
2022/01/16 16:20:10;;;;;;;77.88;34.75;;;;;;;;;;10197599;29;20071;-68
2022/01/16 16:25:17;;;;;;;70.85;32.42;;;;;;;;;;10196792;29;20114;-69
2022/01/16 16:30:20;;;;;;;67.00;30.48;;;;;;;;;;10207403;29;20092;-68
2022/01/16 16:35:26;;;;;;;67.18;30.73;;;;;;;;;;10195674;29;20442;-68
2022/01/16 16:40:30;;;;;;;66.20;28.52;;;;;;;;;;10196449;29;20082;-68
2022/01/16 16:45:32;;;;;;;62.85;27.50;;;;;;;;;;10196554;29;20071;-68
2022/01/16 16:50:35;;;;;;;63.95;30.23;;;;;;;;;;10196395;29;20087;-66
2022/01/16 16:55:38;;;;;;;56.03;27.48;;;;;;;;;;10195887;29;20071;-67
2022/01/16 17:00:40;;;;;;;62.65;27.83;;;;;;;;;;10195389;29;20040;-67
2022/01/16 17:05:43;;;;;;;49.88;24.50;;;;;;;;;;10195985;29;20335;-67
2022/01/16 17:10:47;;;;;;;53.70;24.55;;;;;;;;;;10195564;29;20055;-68
2022/01/16 17:15:53;;;;;;;43.30;22.08;;;;;;;;;;10195538;29;20079;-67
2022/01/16 17:20:55;;;;;;;43.08;22.88;;;;;;;;;;10195154;29;20314;-68
2022/01/16 17:25:59;;;;;;;42.53;23.10;;;;;;;;;;10194770;29;20048;-68
2022/01/16 17:31:02;;;;;;;47.97;22.20;;;;;;;;;;10195565;29;20055;-68
2022/01/16 17:36:05;;;;;;;43.28;22.25;;;;;;;;;;10194115;29;20068;-67
2022/01/16 17:41:11;;;;;;;44.60;22.77;;;;;;;;;;10195004;29;20063;-67
2022/01/16 17:46:14;;;;;;;46.35;23.02;;;;;;;;;;10192822;29;20102;-68
2022/01/16 17:51:19;;;;;;;46.47;22.83;;;;;;;;;;10193567;29;20066;-68
2022/01/16 17:56:23;;;;;;;47.22;21.45;;;;;;;;;;10193564;29;20084;-68
2022/01/16 18:01:25;;;;;;;44.75;21.10;;;;;;;;;;10192604;29;20086;-68
2022/01/16 18:06:29;;;;;;;50.28;22.08;;;;;;;;;;10193650;29;20055;-67
2022/01/16 18:11:34;;;;;;;47.25;22.08;;;;;;;;;;10193399;29;20335;-68
2022/01/16 18:16:36;;;;;;;49.53;23.40;;;;;;;;;;10193520;29;20104;-67
2022/01/16 18:21:38;;;;;;;52.25;23.73;;;;;;;;;;10220858;29;20129;-68
2022/01/16 18:26:42;;;;;;;53.90;23.50;;;;;;;;;;10234214;29;20088;-69
2022/01/16 18:31:46;;;;;;;46.63;21.67;;;;;;;;;;10203993;29;20260;-69
2022/01/16 18:36:51;;;;;;;51.72;23.55;;;;;;;;;;10193284;29;20160;-68
2022/01/16 18:41:56;;;;;;;52.55;23.80;;;;;;;;;;10207587;29;20075;-68
2022/01/16 18:47:03;;;;;;;61.25;25.10;;;;;;;;;;10194104;29;20048;-69
2022/01/16 18:52:06;;;;;;;55.67;23.48;;;;;;;;;;10207592;29;20044;-69
2022/01/16 18:57:10;;;;;;;61.00;24.35;;;;;;;;;;10197133;29;20264;-69
2022/01/16 19:02:13;;;;;;;65.70;24.77;;;;;;;;;;10200820;29;20044;-68
2022/01/16 19:07:15;;;;;;;72.53;26.98;;;;;;;;;;10202921;29;20135;-69
2022/01/16 19:12:22;;;;;;;62.95;25.45;;;;;;;;;;10201831;29;20070;-68
2022/01/16 19:17:24;;;;;;;63.78;24.90;;;;;;;;;;10231278;29;20047;-68
2022/01/16 19:22:26;;;;;;;55.25;23.85;;;;;;;;;;10240910;28;20043;-68
2022/01/16 19:27:30;;;;;;;66.93;27.15;;;;;;;;;;10240357;28;20050;-69
2022/01/16 19:32:33;;;;;;;60.33;25.17;;;;;;;;;;10206063;29;20247;-68
2022/01/16 19:37:35;;;;;;;61.67;23.85;;;;;;;;;;10199459;29;20052;-67
2022/01/16 19:42:48;;;;;;;57.53;23.58;;;;;;;;;;10200824;29;20361;-69
2022/01/16 19:47:50;;;;;;;62.47;24.25;;;;;;;;;;10198057;29;20331;-68
2022/01/16 19:52:52;;;;;;;58.05;22.83;;;;;;;;;;10197511;29;20092;-68
2022/01/16 19:57:56;;;;;;;51.50;22.27;;;;;;;;;;10198366;29;20052;-68
2022/01/16 20:02:59;;;;;;;57.80;24.42;;;;;;;;;;10198218;29;20051;-67
2022/01/16 20:08:01;;;;;;;53.65;23.65;;;;;;;;;;10198094;29;20063;-67
2022/01/16 20:13:05;;;;;;;54.63;23.40;;;;;;;;;;10198798;29;20363;-67
2022/01/16 20:18:07;;;;;;;50.63;23.33;;;;;;;;;;10197495;29;20047;-67
2022/01/16 20:23:11;;;;;;;58.80;24.10;;;;;;;;;;10195396;29;20088;-69
2022/01/16 20:28:15;;;;;;;61.35;26.15;;;;;;;;;;10197756;29;20285;-68
2022/01/16 20:33:17;;;;;;;46.88;22.45;;;;;;;;;;10197445;29;20339;-68
2022/01/16 20:38:19;;;;;;;52.58;23.90;;;;;;;;;;10197218;29;20123;-69
2022/01/16 20:43:23;;;;;;;44.15;20.95;;;;;;;;;;10198037;29;20402;-70
2022/01/16 20:48:26;;;;;;;48.60;20.60;;;;;;;;;;10196944;29;20048;-68
2022/01/16 20:53:29;;;;;;;51.50;23.65;;;;;;;;;;10196361;29;20383;-68
2022/01/16 20:58:34;;;;;;;56.42;23.70;;;;;;;;;;10193858;29;20055;-67
2022/01/16 21:03:38;;;;;;;;;;;;;;;;;;10195738;29;20059;-69
2022/01/16 21:08:41;;;;;;;57.40;23.88;;;;;;;;;;10195872;29;19950;-68
2022/01/16 21:13:48;;;;;;;49.38;23.00;;;;;;;;;;10195049;29;20078;-68
2022/01/16 21:18:50;;;;;;;51.70;23.17;;;;;;;;;;10195228;29;20052;-68
2022/01/16 21:23:52;;;;;;;50.08;23.38;;;;;;;;;;10195031;29;20080;-68
2022/01/16 21:28:56;;;;;;;48.92;22.17;;;;;;;;;;10193570;29;20228;-68
2022/01/16 21:33:59;;;;;;;48.20;23.50;;;;;;;;;;10192634;29;20060;-68
2022/01/16 21:39:05;;;;;;;52.75;23.77;;;;;;;;;;10193778;29;20402;-68
2022/01/16 21:44:09;;;;;;;52.13;24.20;;;;;;;;;;10192884;29;20299;-68
2022/01/16 21:49:15;;;;;;;47.63;22.02;;;;;;;;;;10188480;29;20052;-68
2022/01/16 21:54:18;;;;;;;50.97;24.35;;;;;;;;;;10185501;29;20054;-68
2022/01/16 21:59:21;;;;;;;49.40;21.55;;;;;;;;;;10172074;29;20497;-69
2022/01/16 22:04:24;;;;;;;57.72;25.70;;;;;;;;;;10155127;29;20269;-68
2022/01/16 22:09:27;;;;;;;56.45;24.67;;;;;;;;;;10156773;29;20108;-68
2022/01/16 22:14:30;;;;;;;58.60;24.88;;;;;;;;;;10159216;29;20279;-68
2022/01/16 22:19:32;;;;;;;57.63;26.17;;;;;;;;;;10184707;29;20067;-70
2022/01/16 22:24:35;;;;;;;59.22;24.48;;;;;;;;;;10155409;29;20227;-70
2022/01/16 22:29:39;;;;;;;59.75;26.80;;;;;;;;;;10154772;29;20056;-69
2022/01/16 22:34:42;;;;;;;64.65;26.80;;;;;;;;;;10150976;29;20064;-69
2022/01/16 22:39:45;;;;;;;62.97;25.38;;;;;;;;;;10151468;29;20065;-69
2022/01/16 22:44:51;;;;;;;60.80;24.83;;;;;;;;;;10171281;29;20047;-68
2022/01/16 22:49:53;;;;;;;58.58;25.88;;;;;;;;;;10203148;29;20084;-69
2022/01/16 22:54:56;;;;;;;67.53;26.90;;;;;;;;;;10191175;29;20292;-69
2022/01/16 23:00:00;;;;;;;61.45;27.08;;;;;;;;;;10190608;29;20055;-69
2022/01/16 23:05:03;;;;;;;59.90;25.80;;;;;;;;;;10190370;29;20051;-69
2022/01/16 23:10:06;;;;;;;72.97;28.58;;;;;;;;;;10191460;29;20241;-68
2022/01/16 23:15:10;;;;;;;59.10;26.88;;;;;;;;;;10152133;29;20052;-68
2022/01/16 23:20:13;;;;;;;58.90;27.13;;;;;;;;;;10182415;29;20095;-67
2022/01/16 23:25:16;;;;;;;62.22;27.35;;;;;;;;;;10190494;29;20276;-69
2022/01/16 23:30:19;;;;;;;58.28;25.55;;;;;;;;;;10191014;29;20074;-67
2022/01/16 23:35:22;;;;;;;58.90;25.92;;;;;;;;;;10189914;29;20386;-67
2022/01/16 23:40:24;;;;;;;55.58;26.17;;;;;;;;;;10190320;29;20047;-67
2022/01/16 23:45:30;;;;;;;55.40;26.58;;;;;;;;;;10195588;29;20075;-68
2022/01/16 23:50:32;;;;;;;48.97;25.55;;;;;;;;;;10210695;29;20048;-68
2022/01/16 23:55:35;;;;;;;55.65;25.85;;;;;;;;;;10196839;29;20056;-68
